KLM96E EDDF-EHAM
Flight info
| Callsign | KLM96E |
|---|---|
| Flight time | 0h 48m |
| Altitude | 24000 |
| Route | MARUN8M/25C MARUN Y152 ARPEG Z850 ABILU DCT NORKU |
| Aircraft | B738/M-SDE2E3FGHIRWXY/LB1 |
Departure
| Time | 2026-05-07 09:04 |
|---|---|
| Airport | Frankfurt Main Airport (EDDF) |
Arrival
| Time | 2026-05-07 09:53 |
|---|---|
| Airport | Amsterdam Airport Schiphol (EHAM) |
| Time | Latitude | Longitude | Altitude | Speed | Heading |
|---|---|---|---|---|---|
| 2026-05-07 08:30 | 50.05066 | 8.58834 | 361 ft | 0 kts | 340° |
| 2026-05-07 08:30 | 50.05069 | 8.58832 | 360 ft | 0 kts | 340° |
| 2026-05-07 08:48 | 50.05050 | 8.58843 | 365 ft | 4 kts | 340° |
| 2026-05-07 08:48 | 50.05026 | 8.58858 | 363 ft | 4 kts | 325° |
| 2026-05-07 08:49 | 50.05010 | 8.58887 | 363 ft | 4 kts | 282° |
| 2026-05-07 08:49 | 50.05011 | 8.58923 | 363 ft | 2 kts | 250° |
| 2026-05-07 08:49 | 50.05019 | 8.58957 | 365 ft | 4 kts | 250° |
| 2026-05-07 08:49 | 50.05028 | 8.58995 | 362 ft | 3 kts | 250° |
| 2026-05-07 08:50 | 50.05029 | 8.59000 | 363 ft | 1 kts | 250° |
| 2026-05-07 08:54 | 50.05027 | 8.58993 | 362 ft | 2 kts | 250° |
| 2026-05-07 08:54 | 50.05013 | 8.58932 | 361 ft | 9 kts | 250° |
| 2026-05-07 08:55 | 50.04987 | 8.58825 | 365 ft | 14 kts | 249° |
| 2026-05-07 08:55 | 50.04946 | 8.58690 | 359 ft | 12 kts | 219° |
| 2026-05-07 08:55 | 50.04870 | 8.58694 | 361 ft | 11 kts | 160° |
| 2026-05-07 08:55 | 50.04796 | 8.58736 | 367 ft | 11 kts | 160° |
| 2026-05-07 08:56 | 50.04723 | 8.58767 | 370 ft | 11 kts | 175° |
| 2026-05-07 08:56 | 50.04654 | 8.58762 | 369 ft | 9 kts | 186° |
| 2026-05-07 08:56 | 50.04628 | 8.58755 | 369 ft | 0 kts | 194° |
| 2026-05-07 09:01 | 50.04617 | 8.58750 | 369 ft | 5 kts | 199° |
| 2026-05-07 09:02 | 50.04576 | 8.58707 | 370 ft | 9 kts | 218° |
| 2026-05-07 09:02 | 50.04525 | 8.58667 | 370 ft | 8 kts | 188° |
| 2026-05-07 09:02 | 50.04495 | 8.58625 | 370 ft | 0 kts | 249° |
| 2026-05-07 09:03 | 50.04494 | 8.58618 | 370 ft | 4 kts | 249° |
| 2026-05-07 09:03 | 50.04410 | 8.58265 | 372 ft | 71 kts | 250° |
| 2026-05-07 09:03 | 50.04157 | 8.57207 | 368 ft | 135 kts | 250° |
| 2026-05-07 09:04 | 50.03772 | 8.55643 | 624 ft | 163 kts | 251° |
| 2026-05-07 09:04 | 50.03374 | 8.54020 | 1407 ft | 168 kts | 252° |
| 2026-05-07 09:04 | 50.02936 | 8.52226 | 1754 ft | 191 kts | 252° |
| 2026-05-07 09:04 | 50.02383 | 8.50266 | 2144 ft | 207 kts | 237° |
| 2026-05-07 09:05 | 50.01239 | 8.48843 | 2567 ft | 218 kts | 206° |
| 2026-05-07 09:05 | 49.99782 | 8.48230 | 3130 ft | 217 kts | 193° |
| 2026-05-07 09:05 | 49.98294 | 8.47751 | 3738 ft | 213 kts | 194° |
| 2026-05-07 09:05 | 49.96855 | 8.47238 | 4206 ft | 217 kts | 194° |
| 2026-05-07 09:06 | 49.95367 | 8.46673 | 4550 ft | 228 kts | 196° |
| 2026-05-07 09:06 | 49.93765 | 8.45976 | 4745 ft | 248 kts | 197° |
| 2026-05-07 09:06 | 49.92172 | 8.44952 | 5316 ft | 250 kts | 220° |
| 2026-05-07 09:06 | 49.91171 | 8.42807 | 5907 ft | 247 kts | 255° |
| 2026-05-07 09:07 | 49.91035 | 8.40176 | 6410 ft | 252 kts | 283° |
| 2026-05-07 09:07 | 49.91823 | 8.37716 | 6793 ft | 261 kts | 314° |
| 2026-05-07 09:07 | 49.93341 | 8.36192 | 7400 ft | 265 kts | 341° |
| 2026-05-07 09:07 | 49.95168 | 8.35690 | 8094 ft | 269 kts | 354° |
| 2026-05-07 09:08 | 49.96435 | 8.35586 | 8559 ft | 272 kts | 356° |
| 2026-05-07 09:08 | 49.98339 | 8.35523 | 9248 ft | 276 kts | 357° |
| 2026-05-07 09:08 | 50.00273 | 8.35482 | 9968 ft | 280 kts | 356° |
| 2026-05-07 09:08 | 50.02254 | 8.35435 | 10429 ft | 294 kts | 356° |
| 2026-05-07 09:09 | 50.04376 | 8.35368 | 10597 ft | 316 kts | 356° |
| 2026-05-07 09:09 | 50.06652 | 8.35285 | 10764 ft | 338 kts | 356° |
| 2026-05-07 09:09 | 50.09073 | 8.35186 | 10917 ft | 357 kts | 356° |
| 2026-05-07 09:09 | 50.11597 | 8.35077 | 11335 ft | 367 kts | 356° |
| 2026-05-07 09:10 | 50.14160 | 8.34963 | 12061 ft | 368 kts | 357° |
| 2026-05-07 09:10 | 50.16721 | 8.34845 | 12760 ft | 370 kts | 357° |
| 2026-05-07 09:10 | 50.19315 | 8.34722 | 13371 ft | 376 kts | 357° |
| 2026-05-07 09:10 | 50.21912 | 8.34596 | 13995 ft | 380 kts | 357° |
| 2026-05-07 09:11 | 50.24602 | 8.34465 | 14627 ft | 384 kts | 357° |
| 2026-05-07 09:11 | 50.27284 | 8.34333 | 15263 ft | 387 kts | 357° |
| 2026-05-07 09:11 | 50.29990 | 8.34200 | 15888 ft | 391 kts | 357° |
| 2026-05-07 09:11 | 50.32726 | 8.34064 | 16503 ft | 396 kts | 357° |
| 2026-05-07 09:12 | 50.35491 | 8.33927 | 17126 ft | 399 kts | 358° |
| 2026-05-07 09:12 | 50.38248 | 8.33790 | 17699 ft | 404 kts | 358° |
| 2026-05-07 09:12 | 50.41101 | 8.33649 | 18318 ft | 406 kts | 358° |
| 2026-05-07 09:12 | 50.43892 | 8.33510 | 18911 ft | 407 kts | 358° |
| 2026-05-07 09:13 | 50.46734 | 8.33369 | 19458 ft | 410 kts | 358° |
| 2026-05-07 09:13 | 50.49606 | 8.33226 | 19873 ft | 416 kts | 358° |
| 2026-05-07 09:13 | 50.52502 | 8.33082 | 20415 ft | 417 kts | 358° |
| 2026-05-07 09:13 | 50.55403 | 8.32937 | 21010 ft | 418 kts | 358° |
| 2026-05-07 09:14 | 50.58338 | 8.32790 | 21360 ft | 424 kts | 358° |
| 2026-05-07 09:14 | 50.61292 | 8.32642 | 21891 ft | 425 kts | 358° |
| 2026-05-07 09:14 | 50.64249 | 8.32494 | 22429 ft | 427 kts | 358° |
| 2026-05-07 09:14 | 50.67243 | 8.32343 | 22768 ft | 433 kts | 358° |
| 2026-05-07 09:15 | 50.70258 | 8.32192 | 23291 ft | 435 kts | 358° |
| 2026-05-07 09:15 | 50.73295 | 8.32039 | 23668 ft | 438 kts | 358° |
| 2026-05-07 09:15 | 50.76360 | 8.31885 | 23935 ft | 440 kts | 358° |
| 2026-05-07 09:15 | 50.79391 | 8.31732 | 23981 ft | 436 kts | 358° |
| 2026-05-07 09:16 | 50.82443 | 8.31578 | 23999 ft | 443 kts | 358° |
| 2026-05-07 09:16 | 50.85540 | 8.31421 | 24004 ft | 447 kts | 358° |
| 2026-05-07 09:16 | 50.88654 | 8.31263 | 24008 ft | 449 kts | 358° |
| 2026-05-07 09:16 | 50.91776 | 8.31105 | 24000 ft | 450 kts | 358° |
| 2026-05-07 09:17 | 50.94905 | 8.30946 | 23997 ft | 450 kts | 358° |
| 2026-05-07 09:17 | 50.98036 | 8.30757 | 24002 ft | 450 kts | 355° |
| 2026-05-07 09:17 | 51.01123 | 8.29976 | 24001 ft | 450 kts | 346° |
| 2026-05-07 09:17 | 51.04098 | 8.28446 | 24007 ft | 450 kts | 338° |
| 2026-05-07 09:18 | 51.06885 | 8.26208 | 24008 ft | 450 kts | 330° |
| 2026-05-07 09:18 | 51.09589 | 8.23694 | 24007 ft | 450 kts | 330° |
| 2026-05-07 09:18 | 51.12295 | 8.21204 | 23999 ft | 450 kts | 330° |
| 2026-05-07 09:18 | 51.15019 | 8.18747 | 24003 ft | 450 kts | 331° |
| 2026-05-07 09:19 | 51.17749 | 8.16306 | 24012 ft | 450 kts | 331° |
| 2026-05-07 09:19 | 51.20482 | 8.13867 | 24017 ft | 450 kts | 331° |
| 2026-05-07 09:19 | 51.23219 | 8.11422 | 24012 ft | 451 kts | 331° |
| 2026-05-07 09:19 | 51.25949 | 8.08976 | 24010 ft | 450 kts | 330° |
| 2026-05-07 09:20 | 51.28682 | 8.06521 | 24012 ft | 450 kts | 330° |
| 2026-05-07 09:20 | 51.31407 | 8.04067 | 24013 ft | 450 kts | 330° |
| 2026-05-07 09:20 | 51.34135 | 8.01607 | 24015 ft | 450 kts | 330° |
| 2026-05-07 09:20 | 51.36865 | 7.99142 | 24022 ft | 450 kts | 330° |
| 2026-05-07 09:21 | 51.39593 | 7.96677 | 24021 ft | 450 kts | 330° |
| 2026-05-07 09:21 | 51.42276 | 7.94090 | 24020 ft | 450 kts | 326° |
| 2026-05-07 09:21 | 51.44825 | 7.91172 | 24024 ft | 450 kts | 323° |
| 2026-05-07 09:21 | 51.47326 | 7.88152 | 24025 ft | 450 kts | 323° |
| 2026-05-07 09:22 | 51.49785 | 7.85137 | 24019 ft | 451 kts | 322° |
| 2026-05-07 09:22 | 51.52310 | 7.82046 | 24020 ft | 451 kts | 323° |
| 2026-05-07 09:22 | 51.54812 | 7.79002 | 24024 ft | 451 kts | 323° |
| 2026-05-07 09:22 | 51.57315 | 7.75978 | 23983 ft | 452 kts | 323° |
| 2026-05-07 09:23 | 51.59810 | 7.72988 | 23903 ft | 453 kts | 322° |
| 2026-05-07 09:23 | 51.62334 | 7.69960 | 23950 ft | 452 kts | 322° |
| 2026-05-07 09:23 | 51.64849 | 7.66937 | 23996 ft | 451 kts | 322° |
| 2026-05-07 09:23 | 51.67357 | 7.63919 | 24015 ft | 450 kts | 322° |
| 2026-05-07 09:24 | 51.69867 | 7.60895 | 24018 ft | 451 kts | 322° |
| 2026-05-07 09:24 | 51.72378 | 7.57865 | 24021 ft | 451 kts | 322° |
| 2026-05-07 09:24 | 51.74890 | 7.54830 | 24027 ft | 451 kts | 322° |
| 2026-05-07 09:24 | 51.77404 | 7.51788 | 24029 ft | 452 kts | 322° |
| 2026-05-07 09:25 | 51.79918 | 7.48743 | 24030 ft | 452 kts | 322° |
| 2026-05-07 09:25 | 51.82436 | 7.45688 | 24038 ft | 452 kts | 322° |
| 2026-05-07 09:25 | 51.84952 | 7.42632 | 24034 ft | 453 kts | 322° |
| 2026-05-07 09:25 | 51.87471 | 7.39567 | 24031 ft | 453 kts | 322° |
| 2026-05-07 09:26 | 51.89989 | 7.36498 | 24034 ft | 453 kts | 322° |
| 2026-05-07 09:26 | 51.92509 | 7.33424 | 24032 ft | 454 kts | 322° |
| 2026-05-07 09:26 | 51.95028 | 7.30346 | 24035 ft | 454 kts | 322° |
| 2026-05-07 09:26 | 51.97549 | 7.27261 | 24035 ft | 453 kts | 322° |
| 2026-05-07 09:27 | 52.00063 | 7.24180 | 24032 ft | 453 kts | 322° |
| 2026-05-07 09:27 | 52.02576 | 7.21096 | 24035 ft | 453 kts | 322° |
| 2026-05-07 09:27 | 52.07594 | 7.14925 | 24038 ft | 452 kts | 322° |
| 2026-05-07 09:28 | 52.10099 | 7.11838 | 24036 ft | 452 kts | 322° |
| 2026-05-07 09:28 | 52.12596 | 7.08755 | 24040 ft | 451 kts | 322° |
| 2026-05-07 09:28 | 52.15095 | 7.05650 | 24040 ft | 451 kts | 320° |
| 2026-05-07 09:28 | 52.17323 | 7.02085 | 24038 ft | 450 kts | 308° |
| 2026-05-07 09:29 | 52.19103 | 6.97906 | 24043 ft | 449 kts | 300° |
| 2026-05-07 09:29 | 52.20496 | 6.93355 | 24006 ft | 447 kts | 291° |
| 2026-05-07 09:29 | 52.21579 | 6.88638 | 23764 ft | 441 kts | 289° |
| 2026-05-07 09:29 | 52.22627 | 6.83975 | 23514 ft | 436 kts | 289° |
| 2026-05-07 09:30 | 52.23668 | 6.79349 | 23230 ft | 434 kts | 289° |
| 2026-05-07 09:30 | 52.24713 | 6.74733 | 22957 ft | 433 kts | 290° |
| 2026-05-07 09:30 | 52.25757 | 6.70150 | 22648 ft | 428 kts | 290° |
| 2026-05-07 09:30 | 52.26796 | 6.65607 | 22379 ft | 427 kts | 290° |
| 2026-05-07 09:31 | 52.27830 | 6.61091 | 21753 ft | 423 kts | 290° |
| 2026-05-07 09:31 | 52.28852 | 6.56624 | 21149 ft | 417 kts | 290° |
| 2026-05-07 09:31 | 52.29859 | 6.52221 | 20544 ft | 412 kts | 290° |
| 2026-05-07 09:31 | 52.30856 | 6.47849 | 19941 ft | 409 kts | 290° |
| 2026-05-07 09:32 | 52.31844 | 6.43507 | 19348 ft | 406 kts | 290° |
| 2026-05-07 09:32 | 52.32824 | 6.39192 | 18756 ft | 403 kts | 290° |
| 2026-05-07 09:32 | 52.33792 | 6.34915 | 18143 ft | 400 kts | 290° |
| 2026-05-07 09:32 | 52.34755 | 6.30658 | 17491 ft | 399 kts | 290° |
| 2026-05-07 09:33 | 52.35713 | 6.26414 | 16893 ft | 396 kts | 290° |
| 2026-05-07 09:33 | 52.36657 | 6.22219 | 16301 ft | 391 kts | 290° |
| 2026-05-07 09:33 | 52.37591 | 6.18067 | 15712 ft | 387 kts | 290° |
| 2026-05-07 09:33 | 52.38511 | 6.13964 | 15139 ft | 383 kts | 290° |
| 2026-05-07 09:34 | 52.39426 | 6.09876 | 14579 ft | 380 kts | 290° |
| 2026-05-07 09:34 | 52.40330 | 6.05828 | 14019 ft | 377 kts | 290° |
| 2026-05-07 09:34 | 52.41224 | 6.01817 | 13404 ft | 374 kts | 290° |
| 2026-05-07 09:34 | 52.42110 | 5.97839 | 12820 ft | 370 kts | 290° |
| 2026-05-07 09:35 | 52.42988 | 5.93887 | 12261 ft | 368 kts | 290° |
| 2026-05-07 09:35 | 52.43861 | 5.89950 | 11723 ft | 368 kts | 289° |
| 2026-05-07 09:35 | 52.44730 | 5.86021 | 11175 ft | 365 kts | 290° |
| 2026-05-07 09:35 | 52.45578 | 5.82183 | 11033 ft | 351 kts | 289° |
| 2026-05-07 09:36 | 52.46393 | 5.78488 | 10855 ft | 338 kts | 289° |
| 2026-05-07 09:36 | 52.47177 | 5.74925 | 10729 ft | 327 kts | 289° |
| 2026-05-07 09:36 | 52.47936 | 5.71473 | 10585 ft | 316 kts | 289° |
| 2026-05-07 09:36 | 52.48669 | 5.68137 | 10452 ft | 306 kts | 289° |
| 2026-05-07 09:37 | 52.49378 | 5.64897 | 10332 ft | 297 kts | 289° |
| 2026-05-07 09:37 | 52.50065 | 5.61756 | 10213 ft | 289 kts | 289° |
| 2026-05-07 09:37 | 52.50660 | 5.58659 | 10102 ft | 282 kts | 277° |
| 2026-05-07 09:37 | 52.50484 | 5.55520 | 10090 ft | 276 kts | 252° |
| 2026-05-07 09:38 | 52.49672 | 5.52692 | 10029 ft | 273 kts | 240° |
| 2026-05-07 09:38 | 52.48699 | 5.50039 | 9818 ft | 270 kts | 238° |
| 2026-05-07 09:38 | 52.47708 | 5.47418 | 9461 ft | 271 kts | 238° |
| 2026-05-07 09:38 | 52.46716 | 5.44795 | 9155 ft | 270 kts | 238° |
| 2026-05-07 09:39 | 52.45734 | 5.42184 | 8858 ft | 269 kts | 239° |
| 2026-05-07 09:39 | 52.44758 | 5.39574 | 8563 ft | 268 kts | 239° |
| 2026-05-07 09:39 | 52.43800 | 5.37000 | 8259 ft | 267 kts | 239° |
| 2026-05-07 09:39 | 52.42837 | 5.34407 | 7994 ft | 266 kts | 239° |
| 2026-05-07 09:40 | 52.41877 | 5.31819 | 7712 ft | 265 kts | 239° |
| 2026-05-07 09:40 | 52.40923 | 5.29247 | 7438 ft | 264 kts | 239° |
| 2026-05-07 09:40 | 52.39971 | 5.26681 | 7144 ft | 264 kts | 239° |
| 2026-05-07 09:40 | 52.39018 | 5.24113 | 6868 ft | 263 kts | 239° |
| 2026-05-07 09:41 | 52.38070 | 5.21561 | 6615 ft | 262 kts | 239° |
| 2026-05-07 09:41 | 52.37126 | 5.19022 | 6335 ft | 261 kts | 239° |
| 2026-05-07 09:41 | 52.36182 | 5.16485 | 6058 ft | 261 kts | 239° |
| 2026-05-07 09:41 | 52.35235 | 5.13941 | 5745 ft | 262 kts | 240° |
| 2026-05-07 09:42 | 52.34288 | 5.11404 | 5506 ft | 260 kts | 239° |
| 2026-05-07 09:42 | 52.33469 | 5.08795 | 5191 ft | 259 kts | 250° |
| 2026-05-07 09:42 | 52.32624 | 5.06203 | 4949 ft | 258 kts | 237° |
| 2026-05-07 09:42 | 52.31616 | 5.03775 | 4673 ft | 258 kts | 238° |
| 2026-05-07 09:43 | 52.30598 | 5.01304 | 4297 ft | 264 kts | 238° |
| 2026-05-07 09:43 | 52.29571 | 4.98803 | 4100 ft | 263 kts | 237° |
| 2026-05-07 09:43 | 52.28558 | 4.96329 | 4070 ft | 261 kts | 238° |
| 2026-05-07 09:43 | 52.27556 | 4.93867 | 4069 ft | 261 kts | 237° |
| 2026-05-07 09:44 | 52.26544 | 4.91380 | 4078 ft | 265 kts | 237° |
| 2026-05-07 09:44 | 52.25520 | 4.88847 | 4082 ft | 269 kts | 238° |
| 2026-05-07 09:44 | 52.24492 | 4.86299 | 4072 ft | 268 kts | 237° |
| 2026-05-07 09:44 | 52.23468 | 4.83766 | 4070 ft | 266 kts | 237° |
| 2026-05-07 09:45 | 52.22449 | 4.81252 | 4064 ft | 265 kts | 237° |
| 2026-05-07 09:45 | 52.21436 | 4.78746 | 3924 ft | 264 kts | 237° |
| 2026-05-07 09:45 | 52.20429 | 4.76251 | 3628 ft | 264 kts | 237° |
| 2026-05-07 09:45 | 52.19419 | 4.73753 | 3318 ft | 264 kts | 237° |
| 2026-05-07 09:46 | 52.18410 | 4.71247 | 3013 ft | 264 kts | 237° |
| 2026-05-07 09:46 | 52.17394 | 4.68729 | 2664 ft | 268 kts | 237° |
| 2026-05-07 09:46 | 52.16394 | 4.66206 | 2548 ft | 264 kts | 237° |
| 2026-05-07 09:46 | 52.15398 | 4.63679 | 2211 ft | 264 kts | 237° |
| 2026-05-07 09:47 | 52.14450 | 4.61146 | 2053 ft | 261 kts | 247° |
| 2026-05-07 09:47 | 52.14147 | 4.58316 | 2005 ft | 249 kts | 278° |
| 2026-05-07 09:47 | 52.14728 | 4.55792 | 1986 ft | 233 kts | 309° |
| 2026-05-07 09:47 | 52.15853 | 4.54026 | 2022 ft | 223 kts | 322° |
| 2026-05-07 09:48 | 52.17041 | 4.52512 | 1995 ft | 208 kts | 324° |
| 2026-05-07 09:48 | 52.18274 | 4.51582 | 1982 ft | 188 kts | 355° |
| 2026-05-07 09:48 | 52.19471 | 4.52029 | 2006 ft | 182 kts | 31° |
| 2026-05-07 09:48 | 52.20522 | 4.53155 | 2007 ft | 180 kts | 32° |
| 2026-05-07 09:49 | 52.21481 | 4.54437 | 1987 ft | 178 kts | 51° |
| 2026-05-07 09:49 | 52.22176 | 4.56091 | 2005 ft | 177 kts | 57° |
| 2026-05-07 09:49 | 52.22827 | 4.57808 | 2011 ft | 181 kts | 59° |
| 2026-05-07 09:49 | 52.23472 | 4.59583 | 1986 ft | 182 kts | 56° |
| 2026-05-07 09:50 | 52.24158 | 4.61315 | 1802 ft | 180 kts | 56° |
| 2026-05-07 09:50 | 52.24816 | 4.63018 | 1556 ft | 171 kts | 56° |
| 2026-05-07 09:50 | 52.25425 | 4.64614 | 1335 ft | 158 kts | 56° |
| 2026-05-07 09:50 | 52.25975 | 4.66051 | 1136 ft | 144 kts | 56° |
| 2026-05-07 09:51 | 52.26509 | 4.67442 | 918 ft | 142 kts | 56° |
| 2026-05-07 09:51 | 52.27027 | 4.68805 | 747 ft | 143 kts | 57° |
| 2026-05-07 09:51 | 52.27571 | 4.70232 | 554 ft | 149 kts | 57° |
| 2026-05-07 09:51 | 52.28105 | 4.71623 | 356 ft | 139 kts | 55° |
| 2026-05-07 09:52 | 52.28609 | 4.72940 | 150 ft | 137 kts | 57° |
| 2026-05-07 09:52 | 52.29126 | 4.74287 | 7 ft | 137 kts | 57° |
| 2026-05-07 09:52 | 52.29576 | 4.75456 | -3 ft | 101 kts | 58° |
| 2026-05-07 09:52 | 52.29872 | 4.76226 | -4 ft | 59 kts | 58° |
| 2026-05-07 09:53 | 52.29973 | 4.76466 | -3 ft | 26 kts | 46° |
| 2026-05-07 09:53 | 52.30122 | 4.76619 | -2 ft | 24 kts | 28° |
| 2026-05-07 09:53 | 52.30224 | 4.76708 | -2 ft | 8 kts | 27° |
| 2026-05-07 09:53 | 52.30272 | 4.76749 | -2 ft | 7 kts | 30° |
| 2026-05-07 09:54 | 52.30304 | 4.76802 | -2 ft | 7 kts | 57° |
| 2026-05-07 09:54 | 52.30328 | 4.76866 | -2 ft | 6 kts | 58° |
| 2026-05-07 09:54 | 52.30351 | 4.76927 | -2 ft | 6 kts | 58° |
| 2026-05-07 09:54 | 52.30376 | 4.76989 | -2 ft | 7 kts | 57° |
| 2026-05-07 09:55 | 52.30402 | 4.77055 | -2 ft | 7 kts | 57° |
| 2026-05-07 09:55 | 52.30428 | 4.77119 | -2 ft | 7 kts | 57° |
| 2026-05-07 09:55 | 52.30458 | 4.77193 | -2 ft | 9 kts | 57° |
| 2026-05-07 09:55 | 52.30496 | 4.77291 | -2 ft | 10 kts | 57° |
| 2026-05-07 09:56 | 52.30533 | 4.77388 | -2 ft | 10 kts | 59° |
| 2026-05-07 09:56 | 52.30568 | 4.77483 | -2 ft | 10 kts | 59° |
| 2026-05-07 09:56 | 52.30613 | 4.77560 | -2 ft | 10 kts | 27° |
| 2026-05-07 09:56 | 52.30682 | 4.77585 | -2 ft | 12 kts | 6° |
| 2026-05-07 09:57 | 52.30777 | 4.77596 | -2 ft | 11 kts | 4° |
| 2026-05-07 09:57 | 52.30830 | 4.77532 | -2 ft | 11 kts | 282° |
| 2026-05-07 09:57 | 52.30835 | 4.77413 | -2 ft | 10 kts | 274° |
| 2026-05-07 09:57 | 52.30864 | 4.77364 | -2 ft | 4 kts | 359° |
| 2026-05-07 09:58 | 52.30890 | 4.77366 | -2 ft | 4 kts | 2° |
| 2026-05-07 09:58 | 52.30895 | 4.77367 | -2 ft | 0 kts | 2° |